createdAt,value
2018-02-16T00:01:04.693Z,22.83
2018-02-16T00:03:32.117Z,22.23
2018-02-16T00:05:59.468Z,22.13
2018-02-16T00:08:26.830Z,23.63
2018-02-16T00:10:54.233Z,23.10
2018-02-16T00:13:21.617Z,23.80
2018-02-16T00:15:49.006Z,23.10
2018-02-16T00:18:16.366Z,22.57
2018-02-16T00:20:43.718Z,22.10
2018-02-16T00:23:11.115Z,23.53
2018-02-16T00:25:38.476Z,22.70
2018-02-16T00:28:05.834Z,22.03
2018-02-16T00:30:33.237Z,22.07
2018-02-16T00:33:00.592Z,22.30
2018-02-16T00:35:28.853Z,21.90
2018-02-16T00:37:56.245Z,22.90
2018-02-16T00:40:23.626Z,22.10
2018-02-16T00:42:50.980Z,22.20
2018-02-16T00:45:18.382Z,24.20
2018-02-16T00:47:45.749Z,21.93
2018-02-16T00:50:13.105Z,22.40
2018-02-16T00:52:40.491Z,22.93
2018-02-16T00:55:07.847Z,22.60
2018-02-16T00:57:35.241Z,24.33
2018-02-16T01:00:02.596Z,25.07
2018-02-16T01:02:29.958Z,22.03
2018-02-16T01:04:57.346Z,23.07
2018-02-16T01:07:24.701Z,23.80
2018-02-16T01:09:52.058Z,24.17
2018-02-16T01:12:19.456Z,24.63
2018-02-16T01:14:46.825Z,22.80
2018-02-16T01:17:14.193Z,24.53
2018-02-16T01:19:41.613Z,24.73
2018-02-16T01:22:08.978Z,25.87
2018-02-16T01:24:36.369Z,27.60
2018-02-16T01:27:03.759Z,27.70
2018-02-16T01:29:31.174Z,25.40
2018-02-16T01:31:58.529Z,24.83
2018-02-16T01:34:26.363Z,24.80
2018-02-16T01:36:53.714Z,27.40
2018-02-16T01:39:21.068Z,27.10
2018-02-16T01:41:48.469Z,28.07
2018-02-16T01:44:15.830Z,26.17
2018-02-16T01:46:43.195Z,28.23
2018-02-16T01:49:10.601Z,26.90
2018-02-16T01:51:37.960Z,26.93
2018-02-16T01:54:05.318Z,25.50
2018-02-16T01:56:32.786Z,26.47
2018-02-16T01:59:00.148Z,28.13
2018-02-16T02:01:27.499Z,29.23
2018-02-16T02:03:54.907Z,29.53
2018-02-16T02:06:22.257Z,28.47
2018-02-16T02:08:49.617Z,27.80
2018-02-16T02:11:17.005Z,28.40
2018-02-16T02:13:44.402Z,28.27
2018-02-16T02:16:11.757Z,25.83
2018-02-16T02:18:39.110Z,26.80
2018-02-16T02:21:06.497Z,25.10
2018-02-16T02:23:33.853Z,23.53
2018-02-16T02:26:01.204Z,24.90
2018-02-16T02:28:28.615Z,23.90
2018-02-16T02:30:55.977Z,25.07
2018-02-16T02:33:23.346Z,24.17
2018-02-16T02:35:50.738Z,23.87
2018-02-16T02:38:18.101Z,24.83
2018-02-16T02:40:45.457Z,23.73
2018-02-16T02:43:12.850Z,23.27
2018-02-16T02:45:40.207Z,23.40
2018-02-16T02:48:07.597Z,25.17
2018-02-16T02:50:35.821Z,23.30
2018-02-16T02:53:03.209Z,23.50
2018-02-16T02:55:30.572Z,24.70
2018-02-16T02:57:57.968Z,25.23
2018-02-16T03:00:25.326Z,22.73
2018-02-16T03:02:52.694Z,26.30
2018-02-16T03:05:20.668Z,23.97
2018-02-16T03:07:48.032Z,24.50
2018-02-16T03:10:15.399Z,24.17
2018-02-16T03:12:42.785Z,23.67
2018-02-16T03:15:10.217Z,24.27
2018-02-16T03:17:37.568Z,25.37
2018-02-16T03:20:04.925Z,25.20
2018-02-16T03:22:32.669Z,25.60
2018-02-16T03:25:00.042Z,25.90
2018-02-16T03:27:27.413Z,23.20
2018-02-16T03:29:54.798Z,24.60
2018-02-16T03:32:22.161Z,24.30
2018-02-16T03:34:49.549Z,23.90
2018-02-16T03:37:16.941Z,23.67
2018-02-16T03:39:44.297Z,24.20
2018-02-16T03:42:11.653Z,22.40
2018-02-16T03:44:39.045Z,25.33
2018-02-16T03:47:06.452Z,23.80
2018-02-16T03:49:33.805Z,24.30
2018-02-16T03:52:01.327Z,24.30
2018-02-16T03:54:28.691Z,24.90
2018-02-16T03:56:56.044Z,25.30
2018-02-16T03:59:23.428Z,24.43
2018-02-16T04:01:50.784Z,23.63
2018-02-16T04:04:18.137Z,26.13
2018-02-16T04:06:45.520Z,24.57
2018-02-16T04:09:12.913Z,24.70
2018-02-16T04:11:40.345Z,26.07
2018-02-16T04:14:07.713Z,24.13
2018-02-16T04:16:35.075Z,25.70
2018-02-16T04:19:02.461Z,25.90
2018-02-16T04:21:29.817Z,25.83
2018-02-16T04:23:57.172Z,26.80
2018-02-16T04:26:24.557Z,27.50
2018-02-16T04:28:51.913Z,25.67
2018-02-16T04:31:19.272Z,27.00
2018-02-16T04:33:46.668Z,26.30
2018-02-16T04:36:14.025Z,27.40
2018-02-16T04:38:41.393Z,25.93
2018-02-16T04:41:08.782Z,26.67
2018-02-16T04:43:36.173Z,28.27
2018-02-16T04:46:03.540Z,28.17
2018-02-16T04:48:30.917Z,28.13
2018-02-16T04:50:58.313Z,28.57
2018-02-16T04:53:25.674Z,27.73
2018-02-16T04:55:56.968Z,29.37
2018-02-16T04:58:24.340Z,26.27
2018-02-16T05:00:51.701Z,27.10
2018-02-16T05:03:19.116Z,26.80
2018-02-16T05:05:46.477Z,28.70
2018-02-16T05:08:13.828Z,29.13
2018-02-16T05:10:41.235Z,29.00
2018-02-16T05:13:08.597Z,28.83
2018-02-16T05:15:35.970Z,31.87
2018-02-16T05:18:03.381Z,30.33
2018-02-16T05:20:30.739Z,30.23
2018-02-16T05:22:58.096Z,30.53
2018-02-16T05:25:25.505Z,30.63
2018-02-16T05:27:52.875Z,29.80
2018-02-16T05:30:20.482Z,29.23
2018-02-16T05:32:47.896Z,31.00
2018-02-16T05:35:15.256Z,32.93
2018-02-16T05:37:42.617Z,32.27
2018-02-16T05:40:10.006Z,32.57
2018-02-16T05:42:37.396Z,29.03
2018-02-16T05:45:04.809Z,32.77
2018-02-16T05:47:32.175Z,32.90
2018-02-16T05:49:59.572Z,32.90
2018-02-16T05:52:26.941Z,31.23
2018-02-16T05:54:54.306Z,35.10
2018-02-16T05:57:21.740Z,33.27
2018-02-16T05:59:49.156Z,34.00
2018-02-16T06:02:16.529Z,31.43
2018-02-16T06:04:43.928Z,33.30
2018-02-16T06:07:11.297Z,34.43
2018-02-16T06:09:38.680Z,33.60
2018-02-16T06:12:06.097Z,33.93
2018-02-16T06:14:33.461Z,32.43
2018-02-16T06:17:00.825Z,30.60
2018-02-16T06:19:28.237Z,33.70
2018-02-16T06:21:55.657Z,33.33
2018-02-16T06:24:23.009Z,34.23
2018-02-16T06:26:50.400Z,33.93
2018-02-16T06:29:17.856Z,35.50
2018-02-16T06:31:45.216Z,33.30
2018-02-16T06:34:12.618Z,32.57
2018-02-16T06:36:40.042Z,35.73
2018-02-16T06:39:07.473Z,30.83
2018-02-16T06:41:34.842Z,33.77
2018-02-16T06:44:02.291Z,32.90
2018-02-16T06:46:29.726Z,31.13
2018-02-16T06:48:57.108Z,31.60
2018-02-16T06:51:24.469Z,30.13
2018-02-16T06:53:51.890Z,31.70
2018-02-16T06:56:19.257Z,30.53
2018-02-16T06:58:46.683Z,30.90
2018-02-16T07:01:14.091Z,30.03
2018-02-16T07:03:41.536Z,30.03
2018-02-16T07:06:08.912Z,29.30
2018-02-16T07:08:36.314Z,30.90
2018-02-16T07:11:03.856Z,30.53
2018-02-16T07:13:31.208Z,30.63
2018-02-16T07:15:58.611Z,29.70
2018-02-16T07:18:25.975Z,30.10
2018-02-16T07:20:53.357Z,28.87
2018-02-16T07:23:20.813Z,30.20
2018-02-16T07:25:48.176Z,28.73
2018-02-16T07:28:15.544Z,29.97
2018-02-16T07:30:43.009Z,29.00
2018-02-16T07:33:10.366Z,30.10
2018-02-16T07:35:37.725Z,27.53
2018-02-16T07:38:05.145Z,26.07
2018-02-16T07:40:32.502Z,25.90
2018-02-16T07:42:59.876Z,27.57
2018-02-16T07:45:27.272Z,23.87
2018-02-16T07:47:54.628Z,25.40
2018-02-16T07:50:21.997Z,25.53
2018-02-16T07:52:49.402Z,22.60
2018-02-16T07:55:16.759Z,24.27
2018-02-16T07:57:44.121Z,23.70
2018-02-16T08:00:11.516Z,22.53
2018-02-16T08:02:38.870Z,23.50
2018-02-16T08:05:06.284Z,21.17
2018-02-16T08:07:33.702Z,20.70
2018-02-16T08:10:01.058Z,22.80
2018-02-16T08:12:28.413Z,21.87
2018-02-16T08:14:55.793Z,21.70
2018-02-16T08:17:23.157Z,22.33
2018-02-16T08:19:50.548Z,21.43
2018-02-16T08:22:17.912Z,21.93
2018-02-16T08:24:45.277Z,21.60
2018-02-16T08:27:12.673Z,19.80
2018-02-16T08:29:40.087Z,20.03
2018-02-16T08:32:07.464Z,19.73
2018-02-16T08:34:34.821Z,19.50
2018-02-16T08:37:02.201Z,20.10
2018-02-16T08:39:29.552Z,17.40
2018-02-16T08:41:56.932Z,18.07
2018-02-16T08:44:24.296Z,17.10
2018-02-16T08:46:51.680Z,14.83
2018-02-16T08:49:19.077Z,16.00
2018-02-16T08:51:46.433Z,16.67
2018-02-16T08:54:13.790Z,16.20
2018-02-16T08:56:41.168Z,13.60
2018-02-16T08:59:08.517Z,14.20
2018-02-16T09:01:35.948Z,13.93
2018-02-16T09:04:03.320Z,12.17
2018-02-16T09:06:30.721Z,14.27
2018-02-16T09:08:58.122Z,13.67
2018-02-16T09:11:25.489Z,13.93
2018-02-16T09:13:52.840Z,13.73
2018-02-16T09:16:20.229Z,11.50
2018-02-16T09:18:47.580Z,13.30
2018-02-16T09:21:14.974Z,12.50
2018-02-16T09:23:42.349Z,11.93
2018-02-16T09:26:09.712Z,11.87
2018-02-16T09:28:37.094Z,11.00
2018-02-16T09:31:04.485Z,11.07
2018-02-16T09:33:31.841Z,12.93
2018-02-16T09:35:59.488Z,11.53
2018-02-16T09:38:26.882Z,9.83
2018-02-16T09:40:54.236Z,10.20
2018-02-16T09:43:21.605Z,9.03
2018-02-16T09:45:49.004Z,8.53
2018-02-16T09:48:16.353Z,8.50
2018-02-16T09:50:43.729Z,8.70
2018-02-16T09:53:11.161Z,6.40
2018-02-16T09:55:38.512Z,7.23
2018-02-16T09:58:05.906Z,7.73
2018-02-16T10:00:33.257Z,6.60
2018-02-16T10:03:00.650Z,6.93
2018-02-16T10:05:28.057Z,7.10
2018-02-16T10:07:55.518Z,6.33
2018-02-16T10:10:22.865Z,7.30
2018-02-16T10:12:50.313Z,6.00
2018-02-16T10:15:17.684Z,7.57
2018-02-16T10:17:45.041Z,7.30
2018-02-16T10:20:12.427Z,6.60
2018-02-16T10:22:39.786Z,7.90
2018-02-16T10:25:07.176Z,6.70
2018-02-16T10:27:34.549Z,8.50
2018-02-16T10:30:01.979Z,8.00
2018-02-16T10:32:29.370Z,7.43
2018-02-16T10:34:56.733Z,7.53
2018-02-16T10:37:24.097Z,9.40
2018-02-16T10:39:51.613Z,8.03
2018-02-16T10:42:18.980Z,8.20
2018-02-16T10:44:46.340Z,7.33
2018-02-16T10:47:13.731Z,8.57
2018-02-16T10:49:41.121Z,8.60
2018-02-16T10:52:08.464Z,8.50
2018-02-16T10:54:35.855Z,8.73
2018-02-16T10:57:03.205Z,8.07
2018-02-16T10:59:30.581Z,9.00
2018-02-16T11:02:03.678Z,9.13
2018-02-16T11:04:36.772Z,8.77
2018-02-16T11:07:09.826Z,8.93
2018-02-16T11:09:37.225Z,8.80
2018-02-16T11:12:04.572Z,10.20
2018-02-16T11:14:31.967Z,9.60
2018-02-16T11:16:59.327Z,10.27
2018-02-16T11:19:26.705Z,11.00
2018-02-16T11:21:54.094Z,11.20
2018-02-16T11:24:21.498Z,11.10
2018-02-16T11:26:48.865Z,11.23
2018-02-16T11:29:16.233Z,11.77
2018-02-16T11:31:43.633Z,11.80
2018-02-16T11:34:11.050Z,11.00
2018-02-16T11:36:38.400Z,12.87
2018-02-16T11:39:05.804Z,12.00
2018-02-16T11:41:33.170Z,12.60
2018-02-16T11:44:00.553Z,12.80
2018-02-16T11:46:27.973Z,11.40
2018-02-16T11:48:55.325Z,13.30
2018-02-16T11:51:22.730Z,12.90
2018-02-16T11:53:50.097Z,11.80
2018-02-16T11:56:17.457Z,13.00
2018-02-16T11:58:44.857Z,11.80
2018-02-16T12:01:12.221Z,12.47
2018-02-16T12:03:39.574Z,12.37
2018-02-16T12:06:06.980Z,11.70
2018-02-16T12:08:34.371Z,12.07
2018-02-16T12:11:01.728Z,9.10
2018-02-16T12:13:29.111Z,10.87
2018-02-16T12:15:56.469Z,12.97
2018-02-16T12:18:23.857Z,13.13
2018-02-16T12:20:51.217Z,9.37
2018-02-16T12:23:18.653Z,12.30
2018-02-16T12:25:46.010Z,11.73
2018-02-16T12:28:13.369Z,12.67
2018-02-16T12:30:40.811Z,12.17
2018-02-16T12:33:08.169Z,11.80
2018-02-16T12:35:35.545Z,10.73
2018-02-16T12:38:02.949Z,11.53
2018-02-16T12:40:30.300Z,10.70
2018-02-16T12:42:57.657Z,11.63
2018-02-16T12:45:25.049Z,11.00
2018-02-16T12:47:52.397Z,9.60
2018-02-16T12:50:19.749Z,9.67
2018-02-16T12:52:47.152Z,10.20
2018-02-16T12:55:14.507Z,8.60
2018-02-16T12:57:41.894Z,9.90
2018-02-16T13:00:09.473Z,9.73
2018-02-16T13:02:36.821Z,10.37
2018-02-16T13:05:04.169Z,7.63
2018-02-16T13:07:31.572Z,7.67
2018-02-16T13:09:58.917Z,8.10
2018-02-16T13:12:26.266Z,9.23
2018-02-16T13:14:53.664Z,9.07
2018-02-16T13:17:21.009Z,8.77
2018-02-16T13:19:48.365Z,9.50
2018-02-16T13:22:15.783Z,9.80
2018-02-16T13:24:43.133Z,8.93
2018-02-16T13:27:10.506Z,8.70
2018-02-16T13:29:37.897Z,7.70
2018-02-16T13:32:05.257Z,8.60
2018-02-16T13:34:32.601Z,8.40
2018-02-16T13:36:59.989Z,8.20
2018-02-16T13:39:27.340Z,9.17
2018-02-16T13:41:54.689Z,8.60
2018-02-16T13:44:22.076Z,8.30
2018-02-16T13:46:49.424Z,8.60
2018-02-16T13:49:16.773Z,8.67
2018-02-16T13:51:44.157Z,8.30
2018-02-16T13:54:11.506Z,8.40
2018-02-16T13:56:38.853Z,7.87
2018-02-16T13:59:06.252Z,8.53
2018-02-16T14:01:33.606Z,8.17
2018-02-16T14:04:00.961Z,8.10
2018-02-16T14:06:28.328Z,8.67
2018-02-16T14:08:55.684Z,8.93
2018-02-16T14:11:23.081Z,7.60
2018-02-16T14:13:50.435Z,7.17
2018-02-16T14:16:17.786Z,7.50
2018-02-16T14:18:45.161Z,8.13
2018-02-16T14:21:12.507Z,6.63
2018-02-16T14:23:39.905Z,7.40
2018-02-16T14:26:07.258Z,7.17
2018-02-16T14:28:34.612Z,7.10
2018-02-16T14:31:02.013Z,6.80
2018-02-16T14:33:29.370Z,7.30
2018-02-16T14:35:56.733Z,7.90
2018-02-16T14:38:24.113Z,7.40
2018-02-16T14:40:51.473Z,4.93
2018-02-16T14:43:18.816Z,7.20
2018-02-16T14:45:46.209Z,6.50
2018-02-16T14:48:13.575Z,5.93
2018-02-16T14:50:40.929Z,5.73
2018-02-16T14:53:08.310Z,5.30
2018-02-16T14:55:35.705Z,6.60
2018-02-16T14:58:03.101Z,5.70
2018-02-16T15:00:30.451Z,7.40
2018-02-16T15:02:57.801Z,7.43
2018-02-16T15:05:25.201Z,7.70
2018-02-16T15:07:52.554Z,8.07
2018-02-16T15:10:20.273Z,8.37
2018-02-16T15:12:47.681Z,7.87
2018-02-16T15:15:15.029Z,8.07
2018-02-16T15:17:42.435Z,8.20
2018-02-16T15:20:09.909Z,8.80
2018-02-16T15:22:37.266Z,8.30
2018-02-16T15:25:04.612Z,9.13
2018-02-16T15:27:32.001Z,8.53
2018-02-16T15:29:59.366Z,9.00
2018-02-16T15:32:26.716Z,8.97
2018-02-16T15:34:54.102Z,8.53
2018-02-16T15:37:21.455Z,9.37
2018-02-16T15:39:48.826Z,9.00
2018-02-16T15:42:16.210Z,8.47
2018-02-16T15:44:43.565Z,8.63
2018-02-16T15:47:10.923Z,8.83
2018-02-16T15:49:38.330Z,9.87
2018-02-16T15:52:05.677Z,9.30
2018-02-16T15:54:33.029Z,8.10
2018-02-16T15:57:00.420Z,8.07
2018-02-16T15:59:27.764Z,8.00
2018-02-16T16:01:55.116Z,8.73
2018-02-16T16:04:22.525Z,10.07
2018-02-16T16:06:49.885Z,9.20
2018-02-16T16:09:17.290Z,9.40
2018-02-16T16:11:44.684Z,9.30
2018-02-16T16:14:12.038Z,9.33
2018-02-16T16:16:39.393Z,8.87
2018-02-16T16:19:06.765Z,8.70
2018-02-16T16:21:34.129Z,9.37
2018-02-16T16:24:01.525Z,8.50
2018-02-16T16:26:28.885Z,10.03
2018-02-16T16:28:56.297Z,9.30
2018-02-16T16:31:23.698Z,8.43
2018-02-16T16:33:51.046Z,8.77
2018-02-16T16:36:18.399Z,9.20
2018-02-16T16:38:45.810Z,8.93
2018-02-16T16:41:13.156Z,9.20
2018-02-16T16:43:40.537Z,9.10
2018-02-16T16:46:07.921Z,9.00
2018-02-16T16:48:35.270Z,9.90
2018-02-16T16:51:02.645Z,8.10
2018-02-16T16:53:30.029Z,9.27
2018-02-16T16:55:57.714Z,9.77
2018-02-16T16:58:25.089Z,8.93
2018-02-16T17:00:52.486Z,9.70
2018-02-16T17:03:19.838Z,9.60
2018-02-16T17:05:47.187Z,9.90
2018-02-16T17:08:14.608Z,11.10
2018-02-16T17:10:41.978Z,10.40
2018-02-16T17:13:09.388Z,10.80
2018-02-16T17:15:36.793Z,10.30
2018-02-16T17:18:04.145Z,11.17
2018-02-16T17:20:31.502Z,10.20
2018-02-16T17:22:58.901Z,10.33
2018-02-16T17:25:26.261Z,10.13
2018-02-16T17:27:53.621Z,10.93
2018-02-16T17:30:21.023Z,10.20
2018-02-16T17:32:48.399Z,11.13
2018-02-16T17:35:15.813Z,12.50
2018-02-16T17:37:43.210Z,12.20
2018-02-16T17:40:10.575Z,12.30
2018-02-16T17:42:37.929Z,12.80
2018-02-16T17:45:05.324Z,12.20
2018-02-16T17:47:32.710Z,12.50
2018-02-16T17:50:00.074Z,11.93
2018-02-16T17:52:27.475Z,13.90
2018-02-16T17:54:54.833Z,13.50
2018-02-16T17:57:22.193Z,13.23
2018-02-16T17:59:49.593Z,12.77
2018-02-16T18:02:16.970Z,12.93
2018-02-16T18:04:44.333Z,12.93
2018-02-16T18:07:11.708Z,14.40
2018-02-16T18:09:39.100Z,13.00
2018-02-16T18:12:06.466Z,15.70
2018-02-16T18:14:33.825Z,15.10
2018-02-16T18:17:01.224Z,14.67
2018-02-16T18:19:28.612Z,14.50
2018-02-16T18:21:55.969Z,13.80
2018-02-16T18:24:23.358Z,13.80
2018-02-16T18:26:50.747Z,15.67
2018-02-16T18:29:18.189Z,15.10
2018-02-16T18:31:45.601Z,15.10
2018-02-16T18:34:12.968Z,14.90
2018-02-16T18:36:40.337Z,14.53
2018-02-16T18:39:07.737Z,14.17
2018-02-16T18:41:35.098Z,14.63
2018-02-16T18:44:02.480Z,14.47
2018-02-16T18:46:29.880Z,14.80
2018-02-16T18:48:57.270Z,14.33
2018-02-16T18:51:24.686Z,13.90
2018-02-16T18:53:52.076Z,14.17
2018-02-16T18:56:19.483Z,15.03
2018-02-16T18:58:46.841Z,14.33
2018-02-16T19:01:14.245Z,13.10
2018-02-16T19:03:41.596Z,14.37
2018-02-16T19:06:08.966Z,14.90
2018-02-16T19:08:36.353Z,14.13
2018-02-16T19:11:03.705Z,13.40
2018-02-16T19:13:31.069Z,13.70
2018-02-16T19:15:58.477Z,15.47
2018-02-16T19:18:25.842Z,13.63
2018-02-16T19:20:53.201Z,13.47
2018-02-16T19:23:20.629Z,14.17
2018-02-16T19:25:47.989Z,14.63
2018-02-16T19:28:15.377Z,14.00
2018-02-16T19:30:42.867Z,11.43
2018-02-16T19:33:10.220Z,13.30
2018-02-16T19:35:37.604Z,14.30
2018-02-16T19:38:04.962Z,13.37
2018-02-16T19:40:32.360Z,14.47
2018-02-16T19:42:59.714Z,13.50
2018-02-16T19:45:27.090Z,14.13
2018-02-16T19:47:54.497Z,13.10
2018-02-16T19:50:21.874Z,14.67
2018-02-16T19:52:49.833Z,13.70
2018-02-16T19:55:17.235Z,13.73
2018-02-16T19:57:44.593Z,13.10
2018-02-16T20:00:11.962Z,14.23
2018-02-16T20:02:39.364Z,14.30
2018-02-16T20:05:06.755Z,14.47
2018-02-16T20:07:34.113Z,14.73
2018-02-16T20:10:01.566Z,13.63
2018-02-16T20:12:28.965Z,12.93
2018-02-16T20:14:56.324Z,14.67
2018-02-16T20:17:23.713Z,14.17
2018-02-16T20:19:51.166Z,13.90
2018-02-16T20:22:18.525Z,14.10
2018-02-16T20:24:45.904Z,14.47
2018-02-16T20:27:13.458Z,15.50
2018-02-16T20:29:40.906Z,14.47
2018-02-16T20:32:08.437Z,13.87
2018-02-16T20:34:35.793Z,14.73
2018-02-16T20:37:03.192Z,15.97
2018-02-16T20:39:30.565Z,15.33
2018-02-16T20:41:58.507Z,15.40
2018-02-16T20:44:25.986Z,14.77
2018-02-16T20:46:53.635Z,15.30
2018-02-16T20:49:21.086Z,15.93
2018-02-16T20:51:48.644Z,16.37
2018-02-16T20:54:16.200Z,14.70
2018-02-16T20:56:43.762Z,17.93
2018-02-16T20:59:11.319Z,16.33
2018-02-16T21:01:38.777Z,16.53
2018-02-16T21:04:06.504Z,16.33
2018-02-16T21:06:33.912Z,16.03
2018-02-16T21:09:01.762Z,16.40
2018-02-16T21:11:29.732Z,16.17
2018-02-16T21:13:57.291Z,15.27
2018-02-16T21:16:25.055Z,14.70
2018-02-16T21:18:52.550Z,16.90
2018-02-16T21:21:20.174Z,16.10
2018-02-16T21:23:47.780Z,17.90
2018-02-16T21:26:15.226Z,18.17
2018-02-16T21:28:42.625Z,18.03
2018-02-16T21:31:10.019Z,16.90
2018-02-16T21:33:37.665Z,17.03
2018-02-16T21:36:05.073Z,15.97
2018-02-16T21:38:32.513Z,15.50
2018-02-16T21:41:00.343Z,17.90
2018-02-16T21:43:27.902Z,17.30
2018-02-16T21:45:55.666Z,17.07
2018-02-16T21:48:23.225Z,15.73
2018-02-16T21:50:50.735Z,18.00
2018-02-16T21:53:18.121Z,18.00
2018-02-16T21:55:45.579Z,17.40
2018-02-16T21:58:12.951Z,17.40
2018-02-16T22:00:40.386Z,17.13
2018-02-16T22:03:07.926Z,17.67
2018-02-16T22:05:35.345Z,17.80
2018-02-16T22:08:02.724Z,16.67
2018-02-16T22:10:30.086Z,16.87
2018-02-16T22:12:57.485Z,18.10
2018-02-16T22:15:24.841Z,17.43
2018-02-16T22:17:52.269Z,17.50
2018-02-16T22:20:19.674Z,17.00
2018-02-16T22:22:47.033Z,17.53
2018-02-16T22:25:14.483Z,16.97
2018-02-16T22:27:41.901Z,18.73
2018-02-16T22:30:09.264Z,16.50
2018-02-16T22:32:36.640Z,17.10
2018-02-16T22:35:04.035Z,16.27
2018-02-16T22:37:31.405Z,15.13
2018-02-16T22:39:58.783Z,16.57
2018-02-16T22:42:29.681Z,15.93
2018-02-16T22:44:57.046Z,16.87
2018-02-16T22:47:24.405Z,17.30
2018-02-16T22:49:51.800Z,17.60
2018-02-16T22:52:19.157Z,15.97
2018-02-16T22:54:46.510Z,15.83
2018-02-16T22:57:13.901Z,17.00
2018-02-16T22:59:41.261Z,16.47
2018-02-16T23:02:08.633Z,16.90
2018-02-16T23:04:36.057Z,17.40
2018-02-16T23:07:03.465Z,16.00
2018-02-16T23:09:30.816Z,17.67
2018-02-16T23:11:58.917Z,16.43
2018-02-16T23:14:26.277Z,17.10
2018-02-16T23:16:53.649Z,17.50
2018-02-16T23:19:21.063Z,18.77
2018-02-16T23:21:48.421Z,18.10
2018-02-16T23:24:15.777Z,16.87
2018-02-16T23:26:43.152Z,17.93
2018-02-16T23:29:10.541Z,17.60
2018-02-16T23:31:37.931Z,17.30
2018-02-16T23:34:05.289Z,17.23
2018-02-16T23:36:32.671Z,18.80
2018-02-16T23:39:00.052Z,18.53
2018-02-16T23:41:27.425Z,18.40
2018-02-16T23:43:54.782Z,18.47
2018-02-16T23:46:22.137Z,17.90
2018-02-16T23:48:49.502Z,18.10
2018-02-16T23:51:16.890Z,19.07
2018-02-16T23:53:44.266Z,17.17
2018-02-16T23:56:11.670Z,18.67
2018-02-16T23:58:39.054Z,18.90
